createdAt,value
2019-05-07T00:01:51.562Z,7.58
2019-05-07T00:04:22.441Z,7.60
2019-05-07T00:06:52.766Z,7.60
2019-05-07T00:09:23.272Z,7.67
2019-05-07T00:11:53.473Z,7.67
2019-05-07T00:14:23.913Z,7.57
2019-05-07T00:16:53.742Z,7.46
2019-05-07T00:19:23.818Z,7.43
2019-05-07T00:21:53.627Z,7.52
2019-05-07T00:24:23.055Z,7.31
2019-05-07T00:26:53.337Z,7.29
2019-05-07T00:29:22.891Z,7.34
2019-05-07T00:31:52.609Z,7.24
2019-05-07T00:34:24.166Z,7.14
2019-05-07T00:36:55.243Z,7.06
2019-05-07T00:39:26.654Z,7.04
2019-05-07T00:41:56.101Z,7.06
2019-05-07T00:44:25.996Z,6.99
2019-05-07T00:46:55.696Z,7.08
2019-05-07T00:49:27.038Z,7.08
2019-05-07T00:51:56.488Z,7.17
2019-05-07T00:54:26.238Z,7.02
2019-05-07T00:56:55.962Z,7.11
2019-05-07T00:59:25.657Z,7.09
2019-05-07T01:01:55.365Z,7.00
2019-05-07T01:04:24.844Z,6.92
2019-05-07T01:06:54.576Z,6.83
2019-05-07T01:09:24.004Z,6.73
2019-05-07T01:11:53.687Z,6.71
2019-05-07T01:14:23.399Z,6.77
2019-05-07T01:16:53.134Z,6.52
2019-05-07T01:19:22.830Z,6.62
2019-05-07T01:21:52.657Z,6.60
2019-05-07T01:24:23.277Z,6.62
2019-05-07T01:26:53.278Z,6.67
2019-05-07T01:29:22.988Z,6.70
2019-05-07T01:31:57.083Z,6.55
2019-05-07T01:34:33.831Z,6.57
2019-05-07T01:37:05.143Z,6.58
2019-05-07T01:39:34.938Z,6.37
2019-05-07T01:42:04.358Z,6.32
2019-05-07T01:44:34.149Z,6.34
2019-05-07T01:47:06.241Z,6.25
2019-05-07T01:49:35.928Z,6.32
2019-05-07T01:52:05.727Z,6.23
2019-05-07T01:54:35.437Z,6.16
2019-05-07T01:57:04.860Z,6.26
2019-05-07T01:59:34.363Z,6.26
2019-05-07T02:02:08.564Z,6.26
2019-05-07T02:04:39.917Z,6.36
2019-05-07T02:07:14.233Z,6.41
2019-05-07T02:09:48.331Z,6.49
2019-05-07T02:12:19.687Z,6.32
2019-05-07T02:14:49.118Z,6.23
2019-05-07T02:17:18.549Z,6.28
2019-05-07T02:19:47.985Z,6.31
2019-05-07T02:22:17.697Z,6.33
2019-05-07T02:24:47.408Z,6.30
2019-05-07T02:27:17.727Z,6.35
2019-05-07T02:29:47.440Z,6.20
2019-05-07T02:32:17.105Z,6.10
2019-05-07T02:34:46.542Z,6.04
2019-05-07T02:37:17.903Z,6.12
2019-05-07T02:39:48.980Z,6.10
2019-05-07T02:42:18.425Z,5.97
2019-05-07T02:45:04.239Z,5.97
2019-05-07T02:47:34.027Z,5.86
2019-05-07T02:50:13.105Z,5.96
2019-05-07T02:53:03.915Z,5.91
2019-05-07T02:55:33.857Z,5.85
2019-05-07T02:58:03.837Z,5.65
2019-05-07T03:00:33.810Z,5.68
2019-05-07T03:03:04.368Z,5.75
2019-05-07T03:05:34.945Z,5.60
2019-05-07T03:08:04.856Z,5.52
2019-05-07T03:10:34.540Z,5.37
2019-05-07T03:13:04.521Z,5.38
2019-05-07T03:15:34.485Z,5.43
2019-05-07T03:18:04.657Z,5.33
2019-05-07T03:20:48.140Z,5.28
2019-05-07T03:23:19.209Z,5.36
2019-05-07T03:25:48.411Z,5.31
2019-05-07T03:28:19.028Z,5.36
2019-05-07T03:30:56.212Z,5.19
2019-05-07T03:33:26.323Z,5.21
2019-05-07T03:35:59.770Z,5.23
2019-05-07T03:38:29.454Z,5.19
2019-05-07T03:40:58.885Z,5.14
2019-05-07T03:43:28.571Z,5.05
2019-05-07T03:46:03.885Z,4.85
2019-05-07T03:48:35.158Z,4.86
2019-05-07T03:51:04.984Z,4.93
2019-05-07T03:53:34.656Z,4.97
2019-05-07T03:56:04.573Z,4.98
2019-05-07T03:58:34.448Z,4.80
2019-05-07T04:01:04.656Z,4.99
2019-05-07T04:03:34.799Z,4.88
2019-05-07T04:06:04.857Z,4.86
2019-05-07T04:08:34.291Z,4.76
2019-05-07T04:11:04.174Z,4.75
2019-05-07T04:13:34.028Z,4.88
2019-05-07T04:16:04.538Z,4.83
2019-05-07T04:18:34.373Z,4.85
2019-05-07T04:21:04.226Z,4.83
2019-05-07T04:23:34.561Z,4.85
2019-05-07T04:26:06.111Z,4.88
2019-05-07T04:28:37.190Z,4.79
2019-05-07T04:31:06.617Z,4.83
2019-05-07T04:33:37.691Z,4.85
2019-05-07T04:36:08.762Z,4.77
2019-05-07T04:38:38.452Z,4.67
2019-05-07T04:41:07.879Z,4.75
2019-05-07T04:43:37.302Z,4.78
2019-05-07T04:46:06.746Z,4.76
2019-05-07T04:48:36.167Z,4.83
2019-05-07T04:51:07.502Z,4.89
2019-05-07T04:53:37.169Z,4.94
2019-05-07T04:56:06.608Z,4.92
2019-05-07T04:58:36.037Z,4.92
2019-05-07T05:01:07.125Z,4.99
2019-05-07T05:03:39.200Z,5.04
2019-05-07T05:06:07.704Z,5.08
2019-05-07T05:08:37.130Z,5.13
2019-05-07T05:11:06.566Z,5.09
2019-05-07T05:13:36.020Z,5.08
2019-05-07T05:16:24.942Z,5.08
2019-05-07T05:18:55.568Z,5.12
2019-05-07T05:21:38.778Z,5.19
2019-05-07T05:24:28.003Z,5.20
2019-05-07T05:26:57.441Z,5.33
2019-05-07T05:29:26.866Z,5.43
2019-05-07T05:31:56.301Z,5.38
2019-05-07T05:34:26.010Z,5.43
2019-05-07T05:36:55.444Z,5.47
2019-05-07T05:39:24.869Z,5.48
2019-05-07T05:41:55.949Z,5.47
2019-05-07T05:44:27.305Z,5.63
2019-05-07T05:46:57.015Z,5.59
2019-05-07T05:49:26.722Z,5.64
2019-05-07T05:52:02.053Z,5.59
2019-05-07T05:54:39.090Z,5.72
2019-05-07T05:57:16.184Z,5.80
2019-05-07T05:59:55.484Z,5.89
2019-05-07T06:02:24.898Z,5.96
2019-05-07T06:05:12.636Z,6.07
2019-05-07T06:07:43.998Z,6.18
2019-05-07T06:10:32.997Z,6.26
2019-05-07T06:13:04.199Z,6.40
2019-05-07T06:15:52.275Z,6.44
2019-05-07T06:18:41.741Z,6.52
2019-05-07T06:21:13.381Z,6.64
2019-05-07T06:23:47.111Z,6.70
2019-05-07T06:26:16.533Z,6.76
2019-05-07T06:28:45.963Z,6.79
2019-05-07T06:31:15.646Z,6.87
2019-05-07T06:33:45.084Z,7.00
2019-05-07T06:36:14.514Z,7.04
2019-05-07T06:38:45.586Z,7.11
2019-05-07T06:41:16.720Z,7.16
2019-05-07T06:43:48.105Z,7.24
2019-05-07T06:46:17.532Z,7.45
2019-05-07T06:48:47.275Z,7.44
2019-05-07T06:51:17.705Z,7.43
2019-05-07T06:53:47.265Z,7.50
2019-05-07T06:56:17.015Z,7.51
2019-05-07T06:59:06.096Z,7.60
2019-05-07T07:01:43.166Z,7.66
2019-05-07T07:04:14.251Z,7.76
2019-05-07T07:06:46.110Z,7.75
2019-05-07T07:09:29.510Z,7.83
2019-05-07T07:12:09.351Z,7.83
2019-05-07T07:14:39.059Z,8.02
2019-05-07T07:17:09.686Z,8.08
2019-05-07T07:19:39.400Z,8.11
2019-05-07T07:22:08.829Z,8.18
2019-05-07T07:24:38.271Z,8.16
2019-05-07T07:27:07.771Z,8.29
2019-05-07T07:29:44.922Z,8.39
2019-05-07T07:32:14.815Z,8.52
2019-05-07T07:34:46.249Z,8.56
2019-05-07T07:37:18.130Z,8.50
2019-05-07T07:39:47.921Z,8.52
2019-05-07T07:42:17.630Z,8.53
2019-05-07T07:44:48.972Z,8.67
2019-05-07T07:47:18.687Z,8.68
2019-05-07T07:49:48.127Z,8.73
2019-05-07T07:52:17.556Z,8.77
2019-05-07T07:54:46.994Z,8.78
2019-05-07T07:57:18.070Z,8.79
2019-05-07T07:59:49.160Z,8.72
2019-05-07T08:02:25.671Z,8.71
2019-05-07T08:04:55.459Z,8.86
2019-05-07T08:07:24.893Z,8.96
2019-05-07T08:09:54.591Z,8.86
2019-05-07T08:12:24.019Z,8.83
2019-05-07T08:14:53.545Z,8.90
2019-05-07T08:17:22.974Z,8.94
2019-05-07T08:19:52.492Z,8.95
2019-05-07T08:22:22.756Z,8.92
2019-05-07T08:24:52.247Z,8.95
2019-05-07T08:27:22.368Z,9.02
2019-05-07T08:29:52.566Z,9.00
2019-05-07T08:32:23.788Z,9.04
2019-05-07T08:35:03.545Z,9.12
2019-05-07T08:37:32.982Z,9.12
2019-05-07T08:40:03.041Z,9.10
2019-05-07T08:42:32.766Z,9.09
2019-05-07T08:45:06.537Z,9.13
2019-05-07T08:47:52.785Z,9.24
2019-05-07T08:50:22.310Z,9.26
2019-05-07T08:52:52.176Z,9.20
2019-05-07T08:55:21.990Z,9.29
2019-05-07T08:57:52.501Z,9.44
2019-05-07T09:00:24.095Z,9.42
2019-05-07T09:02:53.792Z,9.49
2019-05-07T09:05:23.503Z,9.48
2019-05-07T09:07:53.210Z,9.54
2019-05-07T09:10:22.628Z,9.60
2019-05-07T09:12:52.686Z,9.58
2019-05-07T09:15:22.729Z,9.66
2019-05-07T09:17:52.758Z,9.74
2019-05-07T09:20:22.927Z,9.78
2019-05-07T09:22:52.789Z,9.86
2019-05-07T09:25:22.404Z,9.94
2019-05-07T09:27:53.546Z,9.98
2019-05-07T09:30:42.043Z,10.12
2019-05-07T09:33:13.433Z,10.23
2019-05-07T09:35:44.784Z,10.28
2019-05-07T09:38:14.215Z,10.43
2019-05-07T09:40:43.657Z,10.51
2019-05-07T09:43:13.096Z,10.49
2019-05-07T09:45:42.901Z,10.54
2019-05-07T09:48:12.608Z,10.80
2019-05-07T09:50:43.816Z,11.06
2019-05-07T09:53:13.315Z,11.31
2019-05-07T09:55:42.774Z,11.36
2019-05-07T09:58:12.711Z,11.41
2019-05-07T10:00:42.659Z,11.47
2019-05-07T10:03:13.415Z,11.89
2019-05-07T10:05:43.229Z,11.97
2019-05-07T10:08:13.177Z,11.80
2019-05-07T10:10:45.200Z,11.81
2019-05-07T10:13:24.819Z,12.04
2019-05-07T10:15:54.563Z,12.00
2019-05-07T10:18:24.319Z,12.04
2019-05-07T10:20:55.208Z,12.11
2019-05-07T10:23:25.243Z,12.34
2019-05-07T10:25:56.367Z,12.47
2019-05-07T10:28:26.152Z,12.57
2019-05-07T10:30:55.858Z,12.40
2019-05-07T10:33:25.714Z,12.47
2019-05-07T10:35:55.221Z,12.63
2019-05-07T10:38:25.018Z,12.86
2019-05-07T10:40:54.456Z,13.12
2019-05-07T10:43:23.904Z,13.00
2019-05-07T10:45:55.764Z,13.12
2019-05-07T10:48:32.029Z,13.36
2019-05-07T10:51:03.299Z,13.34
2019-05-07T10:53:32.735Z,13.25
2019-05-07T10:56:02.759Z,13.37
2019-05-07T10:58:32.431Z,13.29
2019-05-07T11:01:02.914Z,13.14
2019-05-07T11:03:32.967Z,13.18
2019-05-07T11:06:02.399Z,13.17
2019-05-07T11:08:32.944Z,13.59
2019-05-07T11:11:03.070Z,13.60
2019-05-07T11:13:32.795Z,13.42
2019-05-07T11:16:11.763Z,13.24
2019-05-07T11:18:48.934Z,13.53
2019-05-07T11:21:22.151Z,13.21
2019-05-07T11:23:52.207Z,13.74
2019-05-07T11:26:22.185Z,16.51
2019-05-07T11:28:52.170Z,17.70
2019-05-07T11:31:22.393Z,18.87
2019-05-07T11:33:52.130Z,21.17
2019-05-07T11:36:21.996Z,22.35
2019-05-07T11:38:52.657Z,23.19
2019-05-07T11:41:23.860Z,21.11
2019-05-07T11:43:54.949Z,19.47
2019-05-07T11:46:26.270Z,19.25
2019-05-07T11:48:57.629Z,18.09
2019-05-07T11:51:33.447Z,16.86
2019-05-07T11:54:13.389Z,17.03
2019-05-07T11:56:43.138Z,16.34
2019-05-07T11:59:13.472Z,18.08
2019-05-07T12:01:47.906Z,17.27
2019-05-07T12:04:16.043Z,17.10
2019-05-07T12:06:45.766Z,18.49
2019-05-07T12:09:15.204Z,20.37
2019-05-07T12:11:44.971Z,20.65
2019-05-07T12:14:27.770Z,20.32
2019-05-07T12:16:45.891Z,19.75
2019-05-07T12:19:16.581Z,20.15
2019-05-07T12:21:46.460Z,20.01
2019-05-07T12:24:16.587Z,18.54
2019-05-07T12:26:46.506Z,17.80
2019-05-07T12:29:16.239Z,17.26
2019-05-07T12:31:47.311Z,17.47
2019-05-07T12:34:22.896Z,17.61
2019-05-07T12:36:52.820Z,17.18
2019-05-07T12:39:22.266Z,17.65
2019-05-07T12:41:52.494Z,18.43
2019-05-07T12:44:22.314Z,18.44
2019-05-07T12:46:52.478Z,17.72
2019-05-07T12:49:22.233Z,17.22
2019-05-07T12:51:53.637Z,16.97
2019-05-07T12:54:36.833Z,16.83
2019-05-07T12:57:06.343Z,16.68
2019-05-07T12:59:35.795Z,16.34
2019-05-07T13:02:26.690Z,16.57
2019-05-07T13:04:41.953Z,16.48
2019-05-07T13:07:15.745Z,16.52
2019-05-07T13:09:45.556Z,16.43
2019-05-07T13:12:14.992Z,16.41
2019-05-07T13:14:44.461Z,16.22
2019-05-07T13:17:13.907Z,16.26
2019-05-07T13:19:43.588Z,16.26
2019-05-07T13:22:13.190Z,15.93
2019-05-07T13:24:42.732Z,15.88
2019-05-07T13:27:12.498Z,15.99
2019-05-07T13:29:44.821Z,15.95
2019-05-07T13:32:16.135Z,15.73
2019-05-07T13:34:46.512Z,15.99
2019-05-07T13:37:27.253Z,16.04
2019-05-07T13:40:02.665Z,16.23
2019-05-07T13:42:52.270Z,16.15
2019-05-07T13:45:31.757Z,15.89
2019-05-07T13:48:19.643Z,15.91
2019-05-07T13:50:49.937Z,15.88
2019-05-07T13:53:19.448Z,16.13
2019-05-07T13:55:48.963Z,16.63
2019-05-07T13:58:18.399Z,16.33
2019-05-07T14:01:05.794Z,16.43
2019-05-07T14:03:35.224Z,16.68
2019-05-07T14:06:05.284Z,16.32
2019-05-07T14:08:36.493Z,16.43
2019-05-07T14:11:06.327Z,16.31
2019-05-07T14:13:35.999Z,16.26
2019-05-07T14:16:06.913Z,16.19
2019-05-07T14:18:39.032Z,16.45
2019-05-07T14:21:09.362Z,16.43
2019-05-07T14:23:38.807Z,16.35
2019-05-07T14:26:08.623Z,16.59
2019-05-07T14:28:38.058Z,16.57
2019-05-07T14:31:07.793Z,16.58
2019-05-07T14:33:39.138Z,16.55
2019-05-07T14:36:12.765Z,16.65
2019-05-07T14:38:43.849Z,16.45
2019-05-07T14:41:13.291Z,16.51
2019-05-07T14:43:44.447Z,16.59
2019-05-07T14:46:13.950Z,16.53
2019-05-07T14:48:43.975Z,16.43
2019-05-07T14:51:13.532Z,16.53
2019-05-07T14:53:43.247Z,16.53
2019-05-07T14:56:14.263Z,16.65
2019-05-07T14:58:44.307Z,16.76
2019-05-07T15:01:13.881Z,16.80
2019-05-07T15:03:43.329Z,16.76
2019-05-07T15:06:13.029Z,16.71
2019-05-07T15:08:42.956Z,16.88
2019-05-07T15:11:12.667Z,16.88
2019-05-07T15:13:42.883Z,16.84
2019-05-07T15:16:13.089Z,16.95
2019-05-07T15:18:53.890Z,16.97
2019-05-07T15:21:23.683Z,16.95
2019-05-07T15:23:55.030Z,16.87
2019-05-07T15:26:24.605Z,16.89
2019-05-07T15:28:55.835Z,16.87
2019-05-07T15:31:26.987Z,16.83
2019-05-07T15:33:56.737Z,16.76
2019-05-07T15:36:26.450Z,16.87
2019-05-07T15:38:56.137Z,16.70
2019-05-07T15:41:25.863Z,17.10
2019-05-07T15:43:55.550Z,17.07
2019-05-07T15:46:25.381Z,17.13
2019-05-07T15:48:55.091Z,17.11
2019-05-07T15:51:24.802Z,17.17
2019-05-07T15:53:55.882Z,17.41
2019-05-07T15:56:25.647Z,17.55
2019-05-07T15:58:55.359Z,17.65
2019-05-07T16:01:24.801Z,17.57
2019-05-07T16:03:55.200Z,17.68
2019-05-07T16:06:24.854Z,17.60
2019-05-07T16:08:55.939Z,17.59
2019-05-07T16:11:25.390Z,17.49
2019-05-07T16:14:03.366Z,17.50
2019-05-07T16:16:33.330Z,17.54
2019-05-07T16:19:13.568Z,17.57
2019-05-07T16:21:43.001Z,17.52
2019-05-07T16:24:12.442Z,17.49
2019-05-07T16:26:42.130Z,17.45
2019-05-07T16:29:13.339Z,17.45
2019-05-07T16:31:44.183Z,17.39
2019-05-07T16:34:13.815Z,17.24
2019-05-07T16:36:43.528Z,17.19
2019-05-07T16:39:13.245Z,17.14
2019-05-07T16:41:42.684Z,17.01
2019-05-07T16:44:12.472Z,16.88
2019-05-07T16:46:42.363Z,16.76
2019-05-07T16:49:12.320Z,16.83
2019-05-07T16:51:44.784Z,16.71
2019-05-07T16:54:13.256Z,16.63
2019-05-07T16:57:00.349Z,16.65
2019-05-07T16:59:32.432Z,16.58
2019-05-07T17:02:04.160Z,16.45
2019-05-07T17:04:33.981Z,16.41
2019-05-07T17:07:05.326Z,16.39
2019-05-07T17:09:35.515Z,16.48
2019-05-07T17:12:06.627Z,16.34
2019-05-07T17:14:36.076Z,16.34
2019-05-07T17:17:07.470Z,16.33
2019-05-07T17:19:37.248Z,16.26
2019-05-07T17:22:06.963Z,16.26
2019-05-07T17:24:36.412Z,16.16
2019-05-07T17:27:07.486Z,16.18
2019-05-07T17:29:36.928Z,16.26
2019-05-07T17:32:06.368Z,16.28
2019-05-07T17:34:36.060Z,16.27
2019-05-07T17:37:07.139Z,16.24
2019-05-07T17:39:36.580Z,16.22
2019-05-07T17:42:06.016Z,16.35
2019-05-07T17:44:35.772Z,16.26
2019-05-07T17:47:05.213Z,15.95
2019-05-07T17:49:36.496Z,15.81
2019-05-07T17:52:06.001Z,15.90
2019-05-07T17:54:35.454Z,15.89
2019-05-07T17:57:04.888Z,15.84
2019-05-07T17:59:34.644Z,15.80
2019-05-07T18:02:08.579Z,15.77
2019-05-07T18:04:50.546Z,15.72
2019-05-07T18:07:11.928Z,15.65
2019-05-07T18:09:42.442Z,15.59
2019-05-07T18:12:12.408Z,15.55
2019-05-07T18:14:42.504Z,15.47
2019-05-07T18:17:16.328Z,15.38
2019-05-07T18:19:46.245Z,15.35
2019-05-07T18:22:15.921Z,15.29
2019-05-07T18:24:45.367Z,15.22
2019-05-07T18:27:16.696Z,15.13
2019-05-07T18:29:46.411Z,15.01
2019-05-07T18:32:15.849Z,14.94
2019-05-07T18:34:45.291Z,14.83
2019-05-07T18:37:14.728Z,14.76
2019-05-07T18:39:44.534Z,14.65
2019-05-07T18:42:13.971Z,14.59
2019-05-07T18:44:43.740Z,14.54
2019-05-07T18:47:13.181Z,14.51
2019-05-07T18:49:44.732Z,14.39
2019-05-07T18:52:13.785Z,14.29
2019-05-07T18:54:43.228Z,14.19
2019-05-07T18:57:12.999Z,14.13
2019-05-07T18:59:42.436Z,14.05
2019-05-07T19:02:12.217Z,14.03
2019-05-07T19:04:42.242Z,13.93
2019-05-07T19:07:13.185Z,13.85
2019-05-07T19:09:42.842Z,13.77
2019-05-07T19:12:13.966Z,13.69
2019-05-07T19:14:43.356Z,13.59
2019-05-07T19:17:12.798Z,13.57
2019-05-07T19:19:42.236Z,13.52
2019-05-07T19:22:11.690Z,13.44
2019-05-07T19:24:47.257Z,13.36
2019-05-07T19:27:12.714Z,13.26
2019-05-07T19:29:45.665Z,13.20
2019-05-07T19:32:14.560Z,13.03
2019-05-07T19:34:44.269Z,13.04
2019-05-07T19:37:14.019Z,12.97
2019-05-07T19:39:43.508Z,12.94
2019-05-07T19:42:13.300Z,12.85
2019-05-07T19:44:42.737Z,12.83
2019-05-07T19:47:12.739Z,12.74
2019-05-07T19:49:42.300Z,12.72
2019-05-07T19:52:12.419Z,12.69
2019-05-07T19:54:44.358Z,12.64
2019-05-07T19:57:15.142Z,12.58
2019-05-07T19:59:44.845Z,12.61
2019-05-07T20:02:16.179Z,12.58
2019-05-07T20:04:45.620Z,12.54
2019-05-07T20:07:15.404Z,12.35
2019-05-07T20:09:44.834Z,12.33
2019-05-07T20:12:14.523Z,12.36
2019-05-07T20:14:43.960Z,12.32
2019-05-07T20:17:13.722Z,12.27
2019-05-07T20:19:43.168Z,12.26
2019-05-07T20:22:12.942Z,12.17
2019-05-07T20:24:42.382Z,12.18
2019-05-07T20:27:12.460Z,12.16
2019-05-07T20:29:42.845Z,12.09
2019-05-07T20:32:12.696Z,12.09
2019-05-07T20:34:42.310Z,12.00
2019-05-07T20:37:12.878Z,11.98
2019-05-07T20:39:42.730Z,12.05
2019-05-07T20:42:12.501Z,12.00
2019-05-07T20:44:42.585Z,12.03
2019-05-07T20:47:12.787Z,12.00
2019-05-07T20:49:42.876Z,11.98
2019-05-07T20:52:12.635Z,11.87
2019-05-07T20:54:43.717Z,11.83
2019-05-07T20:57:22.513Z,11.81
2019-05-07T20:59:52.297Z,11.79
2019-05-07T21:02:22.752Z,11.84
2019-05-07T21:04:52.649Z,11.89
2019-05-07T21:07:22.359Z,11.86
2019-05-07T21:09:52.976Z,11.86
2019-05-07T21:12:22.750Z,11.83
2019-05-07T21:14:52.657Z,11.80
2019-05-07T21:17:22.804Z,11.77
2019-05-07T21:19:52.736Z,11.78
2019-05-07T21:22:22.790Z,11.76
2019-05-07T21:24:53.174Z,11.71
2019-05-07T21:27:22.956Z,11.66
2019-05-07T21:29:52.847Z,11.68
2019-05-07T21:32:23.064Z,11.61
2019-05-07T21:34:53.038Z,11.64
2019-05-07T21:37:23.025Z,11.65
2019-05-07T21:39:53.260Z,11.62
2019-05-07T21:42:23.117Z,11.61
2019-05-07T21:44:53.005Z,11.62
2019-05-07T21:47:22.709Z,11.60
2019-05-07T21:49:54.920Z,11.59
2019-05-07T21:52:25.408Z,11.48
2019-05-07T21:54:56.483Z,11.45
2019-05-07T21:57:30.229Z,11.39
2019-05-07T22:00:13.542Z,11.34
2019-05-07T22:02:43.291Z,11.33
2019-05-07T22:05:12.859Z,11.31
2019-05-07T22:07:42.706Z,11.28
2019-05-07T22:10:12.758Z,11.34
2019-05-07T22:12:42.632Z,11.31
2019-05-07T22:15:14.853Z,11.28
2019-05-07T22:17:44.556Z,11.30
2019-05-07T22:20:14.128Z,11.30
2019-05-07T22:22:43.825Z,11.39
2019-05-07T22:25:13.268Z,11.47
2019-05-07T22:27:42.722Z,11.47
2019-05-07T22:30:14.387Z,11.38
2019-05-07T22:32:57.292Z,11.34
2019-05-07T22:35:28.651Z,11.35
2019-05-07T22:37:58.339Z,11.31
2019-05-07T22:40:27.777Z,11.35
2019-05-07T22:42:57.472Z,11.37
2019-05-07T22:45:26.924Z,11.37
2019-05-07T22:47:56.349Z,11.29
2019-05-07T22:50:25.805Z,11.20
2019-05-07T22:52:55.497Z,11.17
2019-05-07T22:55:25.196Z,11.10
2019-05-07T22:57:54.408Z,11.12
2019-05-07T23:00:42.719Z,11.12
2019-05-07T23:03:12.627Z,11.16
2019-05-07T23:05:42.252Z,11.19
2019-05-07T23:08:13.512Z,11.21
2019-05-07T23:10:44.580Z,11.21
2019-05-07T23:13:14.142Z,11.22
2019-05-07T23:15:43.597Z,11.24
2019-05-07T23:18:13.371Z,11.23
2019-05-07T23:20:43.302Z,11.26
2019-05-07T23:23:14.158Z,11.23
2019-05-07T23:25:44.031Z,11.20
2019-05-07T23:28:13.465Z,11.21
2019-05-07T23:30:44.324Z,11.30
2019-05-07T23:33:13.822Z,11.31
2019-05-07T23:35:43.266Z,11.28
2019-05-07T23:38:15.772Z,11.28
2019-05-07T23:40:44.226Z,11.27
2019-05-07T23:43:15.470Z,11.18
2019-05-07T23:45:45.195Z,11.12
2019-05-07T23:48:14.623Z,11.18
2019-05-07T23:50:44.074Z,11.20
2019-05-07T23:53:13.806Z,11.12
2019-05-07T23:55:43.251Z,11.07
2019-05-07T23:58:14.150Z,11.07
